createdAt,value
2023-05-16T00:02:09.821Z,6.78
2023-05-16T00:04:37.126Z,11.48
2023-05-16T00:07:04.155Z,6.32
2023-05-16T00:09:31.153Z,6.53
2023-05-16T00:11:58.975Z,6.50
2023-05-16T00:14:26.713Z,7.63
2023-05-16T00:16:54.318Z,8.80
2023-05-16T00:19:21.398Z,8.57
2023-05-16T00:21:48.509Z,9.35
2023-05-16T00:24:15.604Z,10.23
2023-05-16T00:26:42.768Z,8.77
2023-05-16T00:29:09.653Z,8.70
2023-05-16T00:31:36.810Z,7.35
2023-05-16T00:34:04.225Z,8.45
2023-05-16T00:36:31.754Z,8.05
2023-05-16T00:38:58.658Z,8.90
2023-05-16T00:41:27.852Z,7.50
2023-05-16T00:43:54.792Z,6.13
2023-05-16T00:46:21.799Z,6.25
2023-05-16T00:48:48.864Z,8.85
2023-05-16T00:51:17.184Z,6.18
2023-05-16T00:53:44.329Z,7.75
2023-05-16T00:56:11.511Z,8.77
2023-05-16T00:58:38.469Z,9.30
2023-05-16T01:01:05.684Z,8.25
2023-05-16T01:03:34.788Z,7.78
2023-05-16T01:06:01.786Z,8.07
2023-05-16T01:08:28.943Z,7.93
2023-05-16T01:11:23.696Z,8.75
2023-05-16T01:14:11.911Z,8.32
2023-05-16T01:16:59.607Z,7.18
2023-05-16T01:19:42.011Z,11.15
2023-05-16T01:22:38.525Z,7.90
2023-05-16T01:25:39.595Z,9.65
2023-05-16T01:28:08.330Z,8.95
2023-05-16T01:30:40.069Z,9.73
2023-05-16T01:33:08.985Z,10.77
2023-05-16T01:36:03.871Z,8.10
2023-05-16T01:38:41.869Z,9.43
2023-05-16T01:41:13.085Z,6.95
2023-05-16T01:43:52.369Z,10.98
2023-05-16T01:46:30.072Z,8.70
2023-05-16T01:49:26.647Z,8.05
2023-05-16T01:51:59.471Z,8.18
2023-05-16T01:56:57.063Z,8.73
2023-05-16T01:59:28.127Z,8.85
2023-05-16T02:01:57.605Z,8.43
2023-05-16T02:04:24.875Z,10.15
2023-05-16T02:06:52.749Z,9.07
2023-05-16T02:09:20.246Z,8.40
2023-05-16T02:11:47.208Z,11.35
2023-05-16T02:14:14.722Z,11.38
2023-05-16T02:16:41.920Z,10.88
2023-05-16T02:19:09.248Z,11.05
2023-05-16T02:21:36.188Z,12.38
2023-05-16T02:24:03.265Z,9.77
2023-05-16T02:26:30.197Z,11.15
2023-05-16T02:28:57.114Z,9.55
2023-05-16T02:31:29.195Z,10.75
2023-05-16T02:33:56.985Z,10.43
2023-05-16T02:36:24.406Z,12.65
2023-05-16T02:38:51.535Z,9.65
2023-05-16T02:41:18.482Z,13.38
2023-05-16T02:43:46.888Z,11.40
2023-05-16T02:46:31.833Z,11.23
2023-05-16T02:48:59.172Z,13.77
2023-05-16T02:51:27.657Z,13.77
2023-05-16T02:53:57.306Z,15.02
2023-05-16T02:56:24.331Z,20.10
2023-05-16T02:58:54.449Z,14.70
2023-05-16T03:01:21.436Z,14.52
2023-05-16T03:03:48.572Z,12.77
2023-05-16T03:06:17.515Z,15.73
2023-05-16T03:08:44.551Z,13.18
2023-05-16T03:11:11.557Z,14.27
2023-05-16T03:13:41.767Z,15.75
2023-05-16T03:16:09.118Z,14.63
2023-05-16T03:18:36.121Z,14.98
2023-05-16T03:21:03.197Z,15.00
2023-05-16T03:23:30.574Z,14.50
2023-05-16T03:25:58.621Z,14.82
2023-05-16T03:28:27.723Z,15.25
2023-05-16T03:30:55.936Z,17.05
2023-05-16T03:33:24.843Z,17.10
2023-05-16T03:35:52.353Z,16.75
2023-05-16T03:38:19.558Z,18.75
2023-05-16T03:40:47.777Z,17.55
2023-05-16T03:43:14.728Z,18.52
2023-05-16T03:45:41.662Z,22.73
2023-05-16T03:48:10.011Z,21.52
2023-05-16T03:50:39.481Z,20.92
2023-05-16T03:53:08.932Z,19.55
2023-05-16T03:55:36.127Z,19.27
2023-05-16T03:58:03.083Z,18.02
2023-05-16T04:00:30.066Z,21.60
2023-05-16T04:02:57.122Z,21.20
2023-05-16T04:05:24.244Z,20.67
2023-05-16T04:07:51.453Z,22.58
2023-05-16T04:10:18.864Z,23.10
2023-05-16T04:12:47.002Z,21.30
2023-05-16T04:15:13.958Z,21.50
2023-05-16T04:17:40.935Z,20.80
2023-05-16T04:20:08.076Z,19.90
2023-05-16T04:22:35.239Z,22.30
2023-05-16T04:25:02.230Z,19.00
2023-05-16T04:27:31.618Z,17.30
2023-05-16T04:30:00.398Z,18.75
2023-05-16T04:32:28.849Z,18.40
2023-05-16T04:34:58.542Z,18.90
2023-05-16T04:37:25.509Z,18.02
2023-05-16T04:39:52.887Z,17.73
2023-05-16T04:42:19.910Z,17.85
2023-05-16T04:44:48.020Z,18.80
2023-05-16T04:47:15.299Z,18.15
2023-05-16T04:49:42.169Z,18.10
2023-05-16T04:52:10.039Z,19.90
2023-05-16T04:54:39.368Z,19.15
2023-05-16T04:57:06.428Z,18.50
2023-05-16T04:59:33.309Z,19.98
2023-05-16T05:02:00.463Z,17.50
2023-05-16T05:04:28.490Z,19.05
2023-05-16T05:06:55.463Z,19.58
2023-05-16T05:09:22.361Z,18.70
2023-05-16T05:11:49.258Z,17.65
2023-05-16T05:14:16.121Z,21.95
2023-05-16T05:16:43.028Z,22.27
2023-05-16T05:19:10.372Z,24.25
2023-05-16T05:21:37.749Z,22.52
2023-05-16T05:24:04.998Z,23.55
2023-05-16T05:26:31.991Z,20.38
2023-05-16T05:29:05.371Z,19.60
2023-05-16T05:31:35.906Z,22.92
2023-05-16T05:34:03.668Z,25.02
2023-05-16T05:36:31.171Z,22.85
2023-05-16T05:38:58.121Z,27.20
2023-05-16T05:41:25.115Z,30.58
2023-05-16T05:43:52.234Z,35.33
2023-05-16T05:46:19.254Z,37.47
2023-05-16T05:48:46.279Z,34.95
2023-05-16T05:51:14.304Z,38.40
2023-05-16T05:53:41.815Z,37.42
2023-05-16T05:56:08.882Z,33.20
2023-05-16T05:58:35.915Z,40.47
2023-05-16T06:01:02.838Z,40.40
2023-05-16T06:03:29.798Z,36.50
2023-05-16T06:05:56.911Z,38.97
2023-05-16T06:08:23.882Z,41.67
2023-05-16T06:10:50.905Z,37.58
2023-05-16T06:13:17.750Z,36.30
2023-05-16T06:15:44.760Z,38.03
2023-05-16T06:18:11.778Z,44.03
2023-05-16T06:20:38.794Z,35.83
2023-05-16T06:23:05.740Z,34.33
2023-05-16T06:25:32.655Z,36.17
2023-05-16T06:27:59.594Z,36.95
2023-05-16T06:30:26.537Z,36.05
2023-05-16T06:32:53.508Z,34.95
2023-05-16T06:35:20.773Z,34.17
2023-05-16T06:37:47.931Z,40.55
2023-05-16T06:40:14.940Z,36.45
2023-05-16T06:42:41.939Z,35.63
2023-05-16T06:45:10.470Z,34.45
2023-05-16T06:47:37.579Z,35.10
2023-05-16T06:50:04.944Z,34.83
2023-05-16T06:52:31.943Z,33.38
2023-05-16T06:54:58.868Z,32.00
2023-05-16T06:57:26.341Z,34.72
2023-05-16T06:59:53.256Z,31.08
2023-05-16T07:02:20.237Z,33.92
2023-05-16T07:04:47.935Z,35.03
2023-05-16T07:07:15.613Z,33.13
2023-05-16T07:09:42.874Z,35.13
2023-05-16T07:12:09.954Z,31.58
2023-05-16T07:14:36.846Z,32.65
2023-05-16T07:17:04.437Z,34.10
2023-05-16T07:19:31.457Z,33.95
2023-05-16T07:21:58.391Z,31.65
2023-05-16T07:24:25.508Z,27.90
2023-05-16T07:26:52.551Z,33.72
2023-05-16T07:29:19.596Z,37.22
2023-05-16T07:31:46.686Z,31.75
2023-05-16T07:34:13.651Z,30.90
2023-05-16T07:36:41.139Z,30.63
2023-05-16T07:39:08.280Z,28.90
2023-05-16T07:41:35.213Z,28.38
2023-05-16T07:44:02.146Z,31.30
2023-05-16T07:46:29.229Z,30.90
2023-05-16T07:48:56.204Z,32.15
2023-05-16T07:51:23.117Z,31.70
2023-05-16T07:53:50.089Z,35.38
2023-05-16T07:56:17.140Z,31.83
2023-05-16T07:58:44.378Z,38.30
2023-05-16T08:01:12.005Z,35.33
2023-05-16T08:03:39.247Z,33.35
2023-05-16T08:06:06.575Z,30.58
2023-05-16T08:08:33.600Z,35.22
2023-05-16T08:11:00.709Z,34.33
2023-05-16T08:13:27.832Z,33.33
2023-05-16T08:15:55.057Z,32.53
2023-05-16T08:18:22.697Z,32.08
2023-05-16T08:20:49.928Z,30.80
2023-05-16T08:23:17.436Z,32.60
2023-05-16T08:25:44.639Z,29.33
2023-05-16T08:28:11.645Z,27.92
2023-05-16T08:30:41.058Z,33.85
2023-05-16T08:33:10.391Z,33.63
2023-05-16T08:35:37.439Z,32.30
2023-05-16T08:38:04.421Z,29.85
2023-05-16T08:40:31.633Z,31.63
2023-05-16T08:42:58.818Z,30.63
2023-05-16T08:45:26.438Z,32.67
2023-05-16T08:47:56.419Z,30.17
2023-05-16T08:50:25.602Z,28.00
2023-05-16T08:52:55.694Z,32.30
2023-05-16T08:55:24.827Z,28.67
2023-05-16T08:57:52.149Z,28.63
2023-05-16T09:00:19.716Z,28.45
2023-05-16T09:02:47.083Z,26.75
2023-05-16T09:05:15.901Z,25.95
2023-05-16T09:07:43.753Z,27.65
2023-05-16T09:10:11.473Z,27.98
2023-05-16T09:12:40.094Z,30.42
2023-05-16T09:15:08.469Z,27.90
2023-05-16T09:17:39.777Z,26.80
2023-05-16T09:22:36.395Z,29.75
2023-05-16T09:25:04.774Z,30.67
2023-05-16T09:27:32.912Z,29.10
2023-05-16T09:30:00.253Z,30.23
2023-05-16T09:32:27.269Z,31.13
2023-05-16T09:34:56.824Z,30.27
2023-05-16T09:37:23.768Z,30.52
2023-05-16T09:39:52.401Z,30.77
2023-05-16T09:42:20.343Z,31.58
2023-05-16T09:44:51.538Z,27.88
2023-05-16T09:47:19.642Z,30.10
2023-05-16T09:49:48.379Z,30.48
2023-05-16T09:52:16.581Z,31.58
2023-05-16T09:54:43.754Z,30.98
2023-05-16T09:57:10.797Z,27.58
2023-05-16T09:59:39.187Z,31.88
2023-05-16T10:02:07.749Z,30.40
2023-05-16T10:04:36.011Z,30.13
2023-05-16T10:07:04.680Z,36.00
2023-05-16T10:09:34.789Z,34.53
2023-05-16T10:12:04.291Z,30.45
2023-05-16T10:14:38.811Z,26.65
2023-05-16T10:17:07.946Z,32.25
2023-05-16T10:19:39.253Z,29.15
2023-05-16T10:22:07.359Z,27.95
2023-05-16T10:24:45.157Z,29.80
2023-05-16T10:27:12.952Z,34.72
2023-05-16T10:29:53.352Z,31.55
2023-05-16T10:32:25.547Z,31.30
2023-05-16T10:34:53.342Z,31.50
2023-05-16T10:37:20.403Z,29.83
2023-05-16T10:39:47.981Z,29.73
2023-05-16T10:42:18.348Z,28.65
2023-05-16T10:44:54.472Z,31.35
2023-05-16T10:47:25.529Z,26.60
2023-05-16T10:49:52.571Z,24.10
2023-05-16T10:52:19.664Z,24.40
2023-05-16T10:54:52.919Z,27.08
2023-05-16T10:57:23.913Z,23.77
2023-05-16T10:59:52.316Z,24.10
2023-05-16T11:02:30.865Z,22.70
2023-05-16T11:04:59.879Z,25.48
2023-05-16T11:07:36.676Z,20.00
2023-05-16T11:10:08.408Z,33.58
2023-05-16T11:12:42.468Z,20.98
2023-05-16T11:15:20.972Z,18.13
2023-05-16T11:17:48.143Z,16.23
2023-05-16T11:20:33.254Z,18.95
2023-05-16T11:23:22.116Z,17.05
2023-05-16T11:25:51.770Z,16.05
2023-05-16T11:28:20.114Z,17.90
2023-05-16T11:30:56.317Z,17.70
2023-05-16T11:33:24.885Z,17.13
2023-05-16T11:36:15.136Z,17.25
2023-05-16T11:38:43.914Z,15.32
2023-05-16T11:41:11.756Z,13.35
2023-05-16T11:43:43.690Z,12.05
2023-05-16T11:46:15.364Z,11.30
2023-05-16T11:48:42.912Z,12.20
2023-05-16T11:51:10.762Z,14.32
2023-05-16T11:53:38.371Z,11.07
2023-05-16T11:56:08.677Z,10.32
2023-05-16T11:58:37.175Z,11.25
2023-05-16T12:01:05.557Z,9.95
2023-05-16T12:03:36.101Z,8.57
2023-05-16T12:06:03.268Z,11.30
2023-05-16T12:08:30.825Z,9.95
2023-05-16T12:10:58.677Z,12.70
2023-05-16T12:13:26.190Z,12.23
2023-05-16T12:15:53.597Z,10.70
2023-05-16T12:18:21.941Z,9.75
2023-05-16T12:20:49.350Z,11.30
2023-05-16T12:23:16.862Z,9.63
2023-05-16T12:25:49.223Z,11.82
2023-05-16T12:28:16.625Z,13.30
2023-05-16T12:30:46.111Z,11.40
2023-05-16T12:33:15.244Z,12.75
2023-05-16T12:35:46.820Z,8.32
2023-05-16T12:38:16.831Z,7.18
2023-05-16T12:40:44.580Z,8.52
2023-05-16T12:43:15.552Z,8.73
2023-05-16T12:45:43.403Z,5.57
2023-05-16T12:48:14.376Z,6.15
2023-05-16T12:50:42.031Z,5.97
2023-05-16T12:53:16.646Z,6.68
2023-05-16T12:55:45.059Z,4.72
2023-05-16T12:58:12.517Z,6.47
2023-05-16T13:00:39.862Z,5.28
2023-05-16T13:03:07.742Z,6.10
2023-05-16T13:05:36.215Z,4.82
2023-05-16T13:08:03.793Z,4.78
2023-05-16T13:10:31.110Z,5.18
2023-05-16T13:13:01.151Z,4.85
2023-05-16T13:15:28.641Z,3.85
2023-05-16T13:17:56.068Z,6.35
2023-05-16T13:20:23.103Z,2.75
2023-05-16T13:22:50.103Z,3.38
2023-05-16T13:25:17.041Z,4.75
2023-05-16T13:27:44.082Z,3.10
2023-05-16T13:30:11.745Z,4.20
2023-05-16T13:32:39.117Z,4.63
2023-05-16T13:35:06.578Z,5.60
2023-05-16T13:37:33.869Z,4.35
2023-05-16T13:40:00.837Z,3.70
2023-05-16T13:42:27.934Z,3.00
2023-05-16T13:44:54.895Z,3.10
2023-05-16T13:47:22.133Z,3.03
2023-05-16T13:49:49.124Z,2.90
2023-05-16T13:52:16.455Z,2.92
2023-05-16T13:54:43.461Z,3.60
2023-05-16T13:57:10.434Z,3.72
2023-05-16T14:00:08.760Z,3.67
2023-05-16T14:02:26.235Z,5.47
2023-05-16T14:04:53.978Z,3.55
2023-05-16T14:07:21.205Z,4.07
2023-05-16T14:09:48.121Z,3.88
2023-05-16T14:12:17.748Z,4.47
2023-05-16T14:14:45.760Z,5.80
2023-05-16T14:17:12.675Z,2.65
2023-05-16T14:19:39.696Z,6.30
2023-05-16T14:22:06.682Z,3.03
2023-05-16T14:24:34.280Z,7.75
2023-05-16T14:27:01.825Z,4.03
2023-05-16T14:29:28.928Z,5.57
2023-05-16T14:31:56.211Z,3.88
2023-05-16T14:34:23.684Z,4.63
2023-05-16T14:36:51.145Z,4.20
2023-05-16T14:39:18.134Z,5.05
2023-05-16T14:41:45.132Z,5.25
2023-05-16T14:44:12.711Z,5.35
2023-05-16T14:46:39.889Z,6.30
2023-05-16T14:49:06.909Z,4.95
2023-05-16T14:51:33.832Z,7.32
2023-05-16T14:54:00.693Z,3.67
2023-05-16T14:56:28.218Z,6.88
2023-05-16T14:58:55.533Z,2.88
2023-05-16T15:01:22.770Z,2.80
2023-05-16T15:03:55.209Z,3.15
2023-05-16T15:06:23.861Z,5.47
2023-05-16T15:08:51.077Z,4.60
2023-05-16T15:11:18.298Z,2.47
2023-05-16T15:13:45.538Z,2.83
2023-05-16T15:16:12.649Z,2.70
2023-05-16T15:18:40.528Z,3.30
2023-05-16T15:21:07.649Z,2.78
2023-05-16T15:23:34.727Z,2.78
2023-05-16T15:26:01.682Z,4.70
2023-05-16T15:28:28.653Z,3.83
2023-05-16T15:30:55.775Z,3.95
2023-05-16T15:33:22.860Z,7.63
2023-05-16T15:35:49.784Z,3.70
2023-05-16T15:38:16.717Z,9.05
2023-05-16T15:40:43.681Z,18.15
2023-05-16T15:43:10.780Z,48.03
2023-05-16T15:45:40.069Z,29.95
2023-05-16T15:48:07.693Z,46.45
2023-05-16T15:50:35.102Z,19.42
2023-05-16T15:53:02.323Z,6.15
2023-05-16T15:55:29.569Z,9.63
2023-05-16T15:57:58.520Z,6.45
2023-05-16T16:00:26.049Z,4.50
2023-05-16T16:02:53.334Z,6.25
2023-05-16T16:05:20.386Z,5.70
2023-05-16T16:07:47.435Z,6.18
2023-05-16T16:10:14.381Z,5.15
2023-05-16T16:12:41.796Z,9.15
2023-05-16T16:15:10.788Z,5.22
2023-05-16T16:17:37.939Z,6.68
2023-05-16T16:20:05.454Z,4.68
2023-05-16T16:22:32.397Z,6.80
2023-05-16T16:25:00.615Z,10.95
2023-05-16T16:27:27.662Z,10.13
2023-05-16T16:29:54.641Z,6.50
2023-05-16T16:33:25.073Z,8.55
2023-05-16T16:35:59.091Z,9.05
2023-05-16T16:38:26.069Z,7.72
2023-05-16T16:40:53.541Z,11.43
2023-05-16T16:43:21.001Z,8.40
2023-05-16T16:45:48.186Z,6.18
2023-05-16T16:48:15.256Z,7.75
2023-05-16T16:50:43.308Z,9.23
2023-05-16T16:53:19.400Z,9.57
2023-05-16T16:55:46.357Z,12.98
2023-05-16T16:58:13.346Z,4.82
2023-05-16T17:00:40.378Z,7.38
2023-05-16T17:03:07.436Z,6.75
2023-05-16T17:05:34.440Z,8.75
2023-05-16T17:08:01.453Z,5.13
2023-05-16T17:10:28.626Z,13.85
2023-05-16T17:12:55.947Z,8.82
2023-05-16T17:15:24.216Z,8.77
2023-05-16T17:17:54.753Z,6.78
2023-05-16T17:20:22.613Z,9.52
2023-05-16T17:22:49.661Z,8.13
2023-05-16T17:25:16.710Z,7.38
2023-05-16T17:27:44.755Z,7.72
2023-05-16T17:30:12.889Z,7.68
2023-05-16T17:32:40.067Z,11.52
2023-05-16T17:35:07.711Z,9.50
2023-05-16T17:37:37.229Z,12.75
2023-05-16T17:40:05.939Z,7.45
2023-05-16T17:42:37.221Z,8.73
2023-05-16T17:45:08.099Z,7.93
2023-05-16T17:47:35.089Z,8.75
2023-05-16T17:50:02.340Z,8.43
2023-05-16T17:52:29.792Z,8.30
2023-05-16T17:55:05.680Z,8.68
2023-05-16T17:57:34.920Z,10.23
2023-05-16T18:00:02.456Z,6.80
2023-05-16T18:02:32.897Z,6.10
2023-05-16T18:05:03.134Z,10.88
2023-05-16T18:07:41.324Z,8.40
2023-05-16T18:10:10.386Z,7.47
2023-05-16T18:12:38.857Z,8.25
2023-05-16T18:15:26.111Z,7.13
2023-05-16T18:17:58.751Z,10.05
2023-05-16T18:20:26.687Z,5.45
2023-05-16T18:22:53.801Z,7.10
2023-05-16T18:25:26.771Z,9.18
2023-05-16T18:27:56.085Z,7.95
2023-05-16T18:30:23.499Z,7.07
2023-05-16T18:32:50.491Z,7.45
2023-05-16T18:35:17.776Z,8.27
2023-05-16T18:37:44.946Z,7.13
2023-05-16T18:40:12.417Z,9.45
2023-05-16T18:42:39.381Z,7.88
2023-05-16T18:45:07.178Z,7.63
2023-05-16T18:47:34.513Z,6.95
2023-05-16T18:50:01.781Z,6.60
2023-05-16T18:52:28.867Z,7.43
2023-05-16T18:54:55.978Z,6.60
2023-05-16T18:57:23.513Z,11.23
2023-05-16T18:59:53.483Z,10.77
2023-05-16T19:02:27.325Z,7.05
2023-05-16T19:05:01.710Z,6.35
2023-05-16T19:07:28.908Z,9.10
2023-05-16T19:09:55.825Z,10.68
2023-05-16T19:12:22.982Z,10.10
2023-05-16T19:14:49.987Z,7.85
2023-05-16T19:17:16.948Z,10.27
2023-05-16T19:19:44.116Z,10.63
2023-05-16T19:22:11.371Z,11.25
2023-05-16T19:24:38.376Z,7.70
2023-05-16T19:27:05.620Z,9.82
2023-05-16T19:29:32.765Z,9.90
2023-05-16T19:31:59.730Z,6.57
2023-05-16T19:34:26.871Z,7.05
2023-05-16T19:36:53.904Z,6.30
2023-05-16T19:39:20.904Z,9.80
2023-05-16T19:41:51.963Z,5.45
2023-05-16T19:44:19.430Z,6.20
2023-05-16T19:46:46.506Z,9.05
2023-05-16T19:49:14.876Z,9.32
2023-05-16T19:51:42.487Z,9.60
2023-05-16T19:54:10.054Z,13.18
2023-05-16T19:56:36.957Z,6.90
2023-05-16T19:59:03.930Z,7.63
2023-05-16T20:01:30.826Z,8.15
2023-05-16T20:03:57.915Z,7.30
2023-05-16T20:06:24.881Z,7.68
2023-05-16T20:08:51.881Z,6.53
2023-05-16T20:11:18.830Z,9.27
2023-05-16T20:13:45.828Z,6.57
2023-05-16T20:16:12.847Z,6.70
2023-05-16T20:18:40.240Z,8.98
2023-05-16T20:21:07.414Z,6.18
2023-05-16T20:23:35.179Z,9.13
2023-05-16T20:26:02.852Z,7.93
2023-05-16T20:28:30.684Z,7.22
2023-05-16T20:30:57.648Z,7.70
2023-05-16T20:33:24.699Z,7.03
2023-05-16T20:35:51.777Z,10.43
2023-05-16T20:38:18.698Z,6.72
2023-05-16T20:40:48.038Z,10.32
2023-05-16T20:43:15.779Z,8.05
2023-05-16T20:45:42.931Z,7.25
2023-05-16T20:48:10.074Z,5.20
2023-05-16T20:50:38.940Z,6.50
2023-05-16T20:53:06.179Z,11.13
2023-05-16T20:55:33.165Z,11.50
2023-05-16T20:58:00.852Z,7.47
2023-05-16T21:00:27.786Z,8.07
2023-05-16T21:02:54.806Z,7.05
2023-05-16T21:05:34.536Z,10.02
2023-05-16T21:08:01.606Z,10.63
2023-05-16T21:10:28.510Z,12.05
2023-05-16T21:12:55.669Z,10.15
2023-05-16T21:15:23.665Z,8.15
2023-05-16T21:17:51.259Z,8.85
2023-05-16T21:20:18.311Z,13.18
2023-05-16T21:22:46.614Z,10.73
2023-05-16T21:25:13.786Z,7.97
2023-05-16T21:27:40.741Z,9.13
2023-05-16T21:30:08.247Z,9.85
2023-05-16T21:32:35.216Z,5.43
2023-05-16T21:35:04.283Z,7.07
2023-05-16T21:37:31.169Z,5.75
2023-05-16T21:39:58.227Z,8.13
2023-05-16T21:42:25.273Z,9.27
2023-05-16T21:44:52.206Z,5.20
2023-05-16T21:47:19.138Z,5.20
2023-05-16T21:49:46.176Z,7.97
2023-05-16T21:52:13.512Z,6.72
2023-05-16T21:54:40.502Z,5.55
2023-05-16T21:57:07.429Z,10.32
2023-05-16T21:59:34.486Z,7.35
2023-05-16T22:02:01.363Z,4.60
2023-05-16T22:04:28.343Z,10.23
2023-05-16T22:06:55.320Z,5.10
2023-05-16T22:09:22.286Z,6.47
2023-05-16T22:11:49.276Z,8.63
2023-05-16T22:14:16.424Z,7.78
2023-05-16T22:16:43.477Z,11.43
2023-05-16T22:19:10.568Z,11.38
2023-05-16T22:21:37.622Z,6.05
2023-05-16T22:24:05.037Z,6.35
2023-05-16T22:26:32.051Z,15.02
2023-05-16T22:28:58.983Z,13.60
2023-05-16T22:31:25.938Z,9.45
2023-05-16T22:33:52.948Z,10.80
2023-05-16T22:36:19.913Z,11.55
2023-05-16T22:38:46.870Z,10.57
2023-05-16T22:41:13.884Z,13.30
2023-05-16T22:43:40.820Z,12.20
2023-05-16T22:46:07.864Z,10.38
2023-05-16T22:48:34.804Z,14.02
2023-05-16T22:51:02.684Z,12.65
2023-05-16T22:53:29.918Z,11.85
2023-05-16T22:55:56.933Z,10.38
2023-05-16T22:58:23.986Z,9.55
2023-05-16T23:00:50.928Z,11.63
2023-05-16T23:03:18.129Z,8.18
2023-05-16T23:05:45.100Z,6.10
2023-05-16T23:08:12.240Z,7.25
2023-05-16T23:10:39.152Z,7.18
2023-05-16T23:13:06.221Z,6.97
2023-05-16T23:15:33.211Z,6.90
2023-05-16T23:18:00.401Z,9.07
2023-05-16T23:20:27.480Z,11.10
2023-05-16T23:22:54.466Z,9.73
2023-05-16T23:25:21.425Z,7.43
2023-05-16T23:27:48.387Z,10.70
2023-05-16T23:30:15.603Z,11.02
2023-05-16T23:32:42.580Z,8.60
2023-05-16T23:35:09.802Z,7.47
2023-05-16T23:37:36.866Z,8.18
2023-05-16T23:40:04.054Z,6.82
2023-05-16T23:42:31.253Z,11.02
2023-05-16T23:44:58.199Z,11.15
2023-05-16T23:47:25.591Z,9.35
2023-05-16T23:49:52.609Z,12.15
2023-05-16T23:52:19.552Z,9.43
2023-05-16T23:54:46.789Z,9.55
2023-05-16T23:57:13.777Z,6.38
2023-05-16T23:59:41.183Z,7.10
